Time;durP1;ratioP1;P1;durP2;ratioP2;P2;SDS_P1;SDS_P2;PMS_P1;PMS_P2;Temp;Humidity;BMP_temperature;BMP_pressure;BME280_temperature;BME280_humidity;BME280_pressure;Samples;Min_cycle;Max_cycle;Signal;HPM_P1;HPM_P2
2022/08/05 00:00:34;;;;;;;0.32;0.22;;;24.40;60.20;;;;;;4985718;28;20042;-35
2022/08/05 00:02:59;;;;;;;0.90;0.30;;;24.40;60.20;;;;;;4987276;28;20177;-35
2022/08/05 00:05:25;;;;;;;0.68;0.25;;;24.30;60.20;;;;;;4988752;28;20042;-39
2022/08/05 00:07:51;;;;;;;0.32;0.20;;;24.40;60.20;;;;;;4983164;28;20428;-37
2022/08/05 00:10:16;;;;;;;0.25;0.20;;;24.40;60.30;;;;;;4988263;28;20046;-37
2022/08/05 00:12:42;;;;;;;0.10;0.10;;;24.40;60.30;;;;;;4988974;28;20138;-33
2022/08/05 00:15:08;;;;;;;0.10;0.10;;;24.40;60.40;;;;;;4987685;28;20213;-31
2022/08/05 00:17:33;;;;;;;0.30;0.15;;;24.30;60.10;;;;;;4987171;28;20035;-32
2022/08/05 00:19:59;;;;;;;0.65;0.20;;;24.30;60.10;;;;;;4988430;28;20061;-31
2022/08/05 00:22:24;;;;;;;0.17;0.10;;;24.30;60.20;;;;;;4989840;28;20459;-35
2022/08/05 00:24:50;;;;;;;0.20;0.13;;;24.30;60.10;;;;;;4986829;28;20052;-38
2022/08/05 00:27:15;;;;;;;0.32;0.20;;;24.30;60.10;;;;;;4988054;28;20026;-39
2022/08/05 00:29:41;;;;;;;0.30;0.20;;;24.30;60.20;;;;;;4988308;28;20104;-40
2022/08/05 00:32:09;;;;;;;0.45;0.22;;;24.30;60.20;;;;;;4986038;28;20077;-38
2022/08/05 00:34:35;;;;;;;0.20;0.20;;;24.30;60.20;;;;;;4985566;28;20519;-35
2022/08/05 00:37:01;;;;;;;0.32;0.25;;;24.30;60.00;;;;;;4985522;28;20038;-35
2022/08/05 00:39:26;;;;;;;0.40;0.40;;;24.30;60.00;;;;;;4987531;28;20531;-34
2022/08/05 00:41:52;;;;;;;0.20;0.20;;;24.30;60.10;;;;;;4982326;28;20070;-34
2022/08/05 00:44:17;;;;;;;0.50;0.40;;;24.30;60.10;;;;;;4988023;28;20772;-38
2022/08/05 00:46:43;;;;;;;0.30;0.20;;;24.30;60.90;;;;;;4988674;28;20134;-36
2022/08/05 00:49:08;;;;;;;1.25;0.20;;;24.30;60.30;;;;;;4988574;28;20073;-39
2022/08/05 00:51:35;;;;;;;0.05;0.03;;;24.30;60.20;;;;;;4988695;28;20026;-34
2022/08/05 00:54:01;;;;;;;0.30;0.20;;;24.30;60.30;;;;;;4986532;28;20142;-35
2022/08/05 00:56:27;;;;;;;0.30;0.20;;;24.30;60.20;;;;;;4988782;28;20119;-35
2022/08/05 00:58:52;;;;;;;0.20;0.20;;;24.30;60.30;;;;;;4987541;28;20081;-32
2022/08/05 01:01:18;;;;;;;0.68;0.20;;;24.30;60.10;;;;;;4989315;28;20050;-38
2022/08/05 01:03:43;;;;;;;0.40;0.20;;;24.30;60.10;;;;;;4988168;28;20054;-32
2022/08/05 01:06:09;;;;;;;0.45;0.40;;;24.30;60.10;;;;;;4985123;28;20038;-38
2022/08/05 01:08:35;;;;;;;0.40;0.28;;;24.30;60.10;;;;;;4988542;28;20527;-36
2022/08/05 01:11:17;;;;;;;0.40;0.40;;;24.30;60.20;;;;;;4986464;28;20129;-35
2022/08/05 01:14:05;;;;;;;0.30;0.20;;;24.30;60.40;;;;;;4971967;28;20038;-34
2022/08/05 01:16:53;;;;;;;0.38;0.25;;;24.30;60.30;;;;;;4987642;28;20049;-39
2022/08/05 01:19:23;;;;;;;0.30;0.25;;;24.30;60.30;;;;;;4987006;28;20061;-38
2022/08/05 01:22:36;;;;;;;0.40;0.20;;;24.20;60.20;;;;;;4987175;28;20057;-35
2022/08/05 01:25:13;;;;;;;0.30;0.20;;;24.20;60.20;;;;;;4944572;29;20031;-38
2022/08/05 01:27:54;;;;;;;0.43;0.30;;;24.20;60.30;;;;;;4931533;29;20058;-33
2022/08/05 01:30:19;;;;;;;0.20;0.20;;;24.20;60.20;;;;;;4941927;28;20575;-37
2022/08/05 01:32:45;;;;;;;0.20;0.10;;;24.20;60.30;;;;;;4932502;29;20055;-37
2022/08/05 01:35:17;;;;;;;0.25;0.10;;;24.20;60.30;;;;;;4928355;29;20513;-36
2022/08/05 01:37:47;;;;;;;0.55;0.30;;;24.20;60.30;;;;;;4933459;29;20452;-35
2022/08/05 01:40:13;;;;;;;0.20;0.20;;;24.20;60.20;;;;;;4941147;28;20167;-34
2022/08/05 01:42:40;;;;;;;0.25;0.20;;;24.20;60.40;;;;;;4948878;28;20502;-38
2022/08/05 01:45:06;;;;;;;0.43;0.30;;;24.20;60.20;;;;;;4943785;28;20044;-35
2022/08/05 01:47:32;;;;;;;0.30;0.30;;;24.20;60.30;;;;;;4932239;29;20047;-34
2022/08/05 01:49:58;;;;;;;1.45;0.40;;;24.20;60.30;;;;;;4928078;29;20667;-33
2022/08/05 01:52:23;;;;;;;0.22;0.20;;;24.20;60.20;;;;;;4947237;28;20122;-35
2022/08/05 01:54:51;;;;;;;0.40;0.20;;;24.20;60.10;;;;;;4929565;29;20414;-34
2022/08/05 01:57:22;;;;;;;0.20;0.20;;;24.20;60.20;;;;;;4927926;29;20059;-35
2022/08/05 01:59:48;;;;;;;0.30;0.20;;;24.20;60.00;;;;;;4925794;28;20589;-37
2022/08/05 02:02:14;;;;;;;0.60;0.28;;;24.20;60.10;;;;;;5016957;28;20113;-37
2022/08/05 02:04:39;;;;;;;0.35;0.20;;;24.20;60.10;;;;;;5019207;28;20112;-35
2022/08/05 02:07:05;;;;;;;0.20;0.20;;;24.20;60.10;;;;;;4986351;28;20054;-37
2022/08/05 02:09:30;;;;;;;0.70;0.32;;;24.20;60.20;;;;;;4986954;28;20058;-38
2022/08/05 02:12:07;;;;;;;0.20;0.10;;;24.20;60.20;;;;;;4981085;28;20062;-35
2022/08/05 02:14:33;;;;;;;0.30;0.20;;;24.20;60.20;;;;;;4985812;28;20050;-33
2022/08/05 02:17:07;;;;;;;0.35;0.25;;;24.20;60.00;;;;;;4984639;28;20073;-28
2022/08/05 02:19:35;;;;;;;0.55;0.10;;;24.20;60.10;;;;;;5000337;28;20096;-32
2022/08/05 02:22:12;;;;;;;0.40;0.20;;;24.20;60.20;;;;;;5015765;28;20035;-35
2022/08/05 02:24:39;;;;;;;0.38;0.20;;;24.20;60.20;;;;;;4983635;28;20045;-38
2022/08/05 02:27:05;;;;;;;0.47;0.25;;;24.20;60.20;;;;;;4999047;28;20034;-34
2022/08/05 02:29:31;;;;;;;0.20;0.17;;;24.20;60.30;;;;;;4983230;28;20042;-34
2022/08/05 02:31:57;;;;;;;0.38;0.30;;;24.20;61.10;;;;;;4986144;28;20121;-35
2022/08/05 02:34:23;;;;;;;0.22;0.10;;;24.20;60.20;;;;;;5019373;28;20133;-36
2022/08/05 02:36:50;;;;;;;0.82;0.40;;;24.20;60.20;;;;;;4985131;28;20077;-36
2022/08/05 02:39:20;;;;;;;0.32;0.20;;;24.20;61.00;;;;;;4983441;28;20069;-35
2022/08/05 02:41:47;;;;;;;0.30;0.13;;;24.20;60.20;;;;;;4982440;28;20137;-40
2022/08/05 02:44:12;;;;;;;0.38;0.10;;;24.20;60.30;;;;;;5016256;28;20053;-37
2022/08/05 02:46:41;;;;;;;0.30;0.28;;;24.20;60.10;;;;;;4985197;28;20046;-35
2022/08/05 02:49:07;;;;;;;0.20;0.20;;;24.10;60.10;;;;;;4986566;28;20042;-40
2022/08/05 02:51:34;;;;;;;0.30;0.20;;;24.20;60.10;;;;;;4982942;28;20038;-36
2022/08/05 02:53:59;;;;;;;0.22;0.15;;;24.10;60.10;;;;;;5017184;28;20132;-35
2022/08/05 02:56:26;;;;;;;0.40;0.30;;;24.10;60.10;;;;;;4983404;28;20046;-35
2022/08/05 02:58:51;;;;;;;1.10;0.20;;;24.10;60.10;;;;;;4997854;28;20046;-38
2022/08/05 03:01:20;;;;;;;0.30;0.20;;;24.10;60.00;;;;;;4996147;28;20055;-33
2022/08/05 03:03:48;;;;;;;0.22;0.10;;;24.10;60.30;;;;;;5016330;28;20506;-36
2022/08/05 03:06:14;;;;;;;0.63;0.30;;;24.20;60.20;;;;;;4981631;28;20097;-36
2022/08/05 03:08:40;;;;;;;0.50;0.30;;;24.10;59.90;;;;;;5016311;28;20054;-37
2022/08/05 03:11:19;;;;;;;0.45;0.20;;;24.10;60.00;;;;;;5018556;28;20113;-39
2022/08/05 03:13:45;;;;;;;0.47;0.20;;;24.10;60.00;;;;;;4985981;28;20112;-32
2022/08/05 03:16:10;;;;;;;0.35;0.22;;;24.10;60.10;;;;;;4985007;28;20381;-37
2022/08/05 03:18:36;;;;;;;0.38;0.20;;;24.10;59.90;;;;;;4985206;28;20499;-32
2022/08/05 03:21:01;;;;;;;0.30;0.15;;;24.00;59.90;;;;;;4984866;28;20078;-37
2022/08/05 03:23:27;;;;;;;0.20;0.20;;;24.10;60.10;;;;;;4983630;28;20078;-37
2022/08/05 03:25:52;;;;;;;0.40;0.30;;;24.10;60.00;;;;;;5014121;28;20262;-35
2022/08/05 03:28:18;;;;;;;0.25;0.15;;;24.10;60.00;;;;;;4981880;28;20104;-37
2022/08/05 03:30:43;;;;;;;0.10;0.10;;;24.00;59.90;;;;;;4978635;28;20058;-36
2022/08/05 03:33:09;;;;;;;0.30;0.20;;;24.00;59.80;;;;;;4978278;28;20500;-41
2022/08/05 03:35:34;;;;;;;0.40;0.20;;;24.00;60.00;;;;;;4981599;28;20035;-35
2022/08/05 03:38:01;;;;;;;0.40;0.20;;;24.00;59.90;;;;;;4982281;28;20046;-37
2022/08/05 03:40:27;;;;;;;0.60;0.22;;;24.00;60.00;;;;;;4985245;28;20069;-34
2022/08/05 03:42:52;;;;;;;0.17;0.10;;;24.00;59.80;;;;;;4982376;28;20070;-31
2022/08/05 03:45:18;;;;;;;0.88;0.30;;;24.10;60.50;;;;;;4978974;28;20035;-40
2022/08/05 03:47:44;;;;;;;1.63;0.40;;;23.80;59.60;;;;;;4985528;28;20424;-38
2022/08/05 03:50:09;;;;;;;1.15;0.47;;;23.50;58.20;;;;;;4984950;28;20129;-36
2022/08/05 03:52:41;;;;;;;2.08;0.50;;;23.30;57.80;;;;;;4986997;28;20431;-34
2022/08/05 03:55:09;;;;;;;2.20;0.40;;;23.00;57.80;;;;;;4981577;28;20088;-36
2022/08/05 03:57:35;;;;;;;0.73;0.43;;;22.90;57.90;;;;;;4983605;28;20046;-39
2022/08/05 04:00:09;;;;;;;1.25;0.50;;;22.70;57.80;;;;;;5013183;28;20088;-33
2022/08/05 04:02:36;;;;;;;1.38;0.45;;;22.60;58.30;;;;;;4982109;28;20046;-32
2022/08/05 04:05:01;;;;;;;1.85;0.60;;;22.40;58.20;;;;;;4998409;28;20104;-37
2022/08/05 04:07:27;;;;;;;1.75;0.65;;;22.30;58.60;;;;;;4983742;28;20050;-36
2022/08/05 04:09:53;;;;;;;1.05;0.40;;;22.30;58.70;;;;;;4983507;28;20027;-37
2022/08/05 04:12:18;;;;;;;1.42;0.32;;;22.30;58.60;;;;;;4981876;28;20660;-35
2022/08/05 04:14:44;;;;;;;1.05;0.38;;;22.20;58.60;;;;;;4984779;28;20046;-36
2022/08/05 04:17:10;;;;;;;1.65;0.45;;;22.10;58.90;;;;;;4985884;28;20039;-38
2022/08/05 04:19:46;;;;;;;1.45;0.70;;;22.00;59.10;;;;;;4988845;28;20054;-32
2022/08/05 04:22:12;;;;;;;1.70;0.52;;;22.00;59.10;;;;;;4986970;28;20047;-35
2022/08/05 04:24:38;;;;;;;1.40;0.52;;;21.90;59.30;;;;;;4986416;28;20053;-36
2022/08/05 04:27:04;;;;;;;1.23;0.40;;;21.90;59.30;;;;;;4986740;28;20117;-36
2022/08/05 04:29:30;;;;;;;0.90;0.50;;;21.80;59.50;;;;;;4986837;28;20125;-33
2022/08/05 04:31:55;;;;;;;2.67;0.68;;;21.70;59.70;;;;;;4985992;28;20054;-36
2022/08/05 04:34:21;;;;;;;1.38;0.50;;;21.50;60.10;;;;;;4989181;28;20049;-38
2022/08/05 04:36:46;;;;;;;1.70;0.70;;;21.50;60.00;;;;;;4988679;28;20500;-33
2022/08/05 04:39:12;;;;;;;1.33;0.45;;;21.50;60.20;;;;;;4986630;28;20092;-35
2022/08/05 04:41:37;;;;;;;1.25;0.52;;;21.40;60.40;;;;;;4987687;28;20046;-32
2022/08/05 04:44:03;;;;;;;0.80;0.50;;;21.40;60.60;;;;;;4986289;28;20443;-31
2022/08/05 04:46:29;;;;;;;1.27;0.60;;;21.40;60.70;;;;;;4989679;28;20039;-38
2022/08/05 04:48:54;;;;;;;1.45;0.73;;;21.40;60.60;;;;;;4986848;28;20074;-38
2022/08/05 04:51:20;;;;;;;1.35;0.40;;;21.20;60.80;;;;;;4986114;28;20051;-33
2022/08/05 04:53:45;;;;;;;2.53;0.70;;;21.10;61.10;;;;;;4986196;28;20046;-35
2022/08/05 04:56:11;;;;;;;0.90;0.50;;;21.10;61.40;;;;;;4986314;28;20058;-32
2022/08/05 04:58:37;;;;;;;1.15;0.40;;;21.00;61.60;;;;;;4988350;28;20484;-35
2022/08/05 05:01:02;;;;;;;1.52;0.52;;;20.90;61.70;;;;;;4984599;28;20042;-32
2022/08/05 05:03:28;;;;;;;1.23;0.57;;;21.00;61.70;;;;;;4986717;28;20050;-34
2022/08/05 05:05:53;;;;;;;1.55;0.47;;;20.90;61.60;;;;;;4986520;28;20038;-35
2022/08/05 05:08:19;;;;;;;2.35;0.70;;;20.80;62.10;;;;;;4986419;28;20504;-32
2022/08/05 05:10:45;;;;;;;0.70;0.50;;;20.80;62.30;;;;;;4985831;28;20957;-34
2022/08/05 05:13:12;;;;;;;0.70;0.55;;;20.80;62.20;;;;;;4988426;28;20348;-30
2022/08/05 05:15:38;;;;;;;0.82;0.60;;;20.80;62.20;;;;;;4986036;28;20457;-35
2022/08/05 05:18:04;;;;;;;1.73;0.85;;;20.60;62.60;;;;;;4984226;28;20034;-37
2022/08/05 05:20:30;;;;;;;2.13;0.70;;;20.70;62.50;;;;;;4983073;28;20121;-34
2022/08/05 05:22:57;;;;;;;1.52;0.50;;;20.70;62.60;;;;;;4985777;28;20105;-31
2022/08/05 05:25:22;;;;;;;1.00;0.40;;;20.50;63.00;;;;;;4985551;28;20042;-31
2022/08/05 05:27:48;;;;;;;1.63;0.75;;;20.40;63.60;;;;;;4984888;28;20034;-36
2022/08/05 05:30:14;;;;;;;1.77;1.05;;;20.40;63.40;;;;;;4986863;28;20052;-38
2022/08/05 05:32:39;;;;;;;1.13;0.60;;;20.40;63.60;;;;;;4986297;28;20037;-28
2022/08/05 05:35:05;;;;;;;1.90;0.65;;;20.40;63.70;;;;;;4986526;28;20073;-36
2022/08/05 05:37:31;;;;;;;1.05;0.70;;;20.40;63.60;;;;;;4987816;28;20539;-32
2022/08/05 05:39:56;;;;;;;0.80;0.60;;;20.30;64.00;;;;;;4985328;28;20204;-33
2022/08/05 05:42:22;;;;;;;0.93;0.43;;;20.20;64.20;;;;;;4983866;28;20073;-34
2022/08/05 05:44:47;;;;;;;1.27;0.60;;;20.20;64.30;;;;;;4985298;28;20514;-35
2022/08/05 05:47:13;;;;;;;1.13;0.55;;;20.20;64.50;;;;;;4986092;28;20049;-35
2022/08/05 05:49:38;;;;;;;2.22;0.88;;;20.20;64.70;;;;;;4986461;28;20043;-35
2022/08/05 05:52:04;;;;;;;3.28;0.70;;;20.20;64.40;;;;;;4986296;28;20038;-40
2022/08/05 05:54:30;;;;;;;1.92;0.77;;;20.20;64.60;;;;;;4984413;28;20137;-31
2022/08/05 05:56:56;;;;;;;1.63;0.55;;;20.10;65.10;;;;;;4987249;28;20042;-29
2022/08/05 05:59:23;;;;;;;3.45;0.73;;;20.10;65.20;;;;;;4983813;28;20049;-35
2022/08/05 06:01:48;;;;;;;1.73;0.82;;;20.20;64.80;;;;;;4985388;28;20038;-36
2022/08/05 06:04:14;;;;;;;3.58;0.95;;;20.20;64.80;;;;;;4986504;28;20057;-33
2022/08/05 06:06:41;;;;;;;3.05;0.80;;;20.00;65.50;;;;;;4982497;28;20165;-35
2022/08/05 06:09:07;;;;;;;1.02;0.60;;;20.20;65.10;;;;;;4981118;28;20030;-32
2022/08/05 06:11:32;;;;;;;1.42;0.68;;;20.40;64.50;;;;;;4636044;28;10000130;-36
2022/08/05 06:13:58;;;;;;;1.20;0.60;;;20.60;64.00;;;;;;4980263;28;20510;-32
2022/08/05 06:16:24;;;;;;;1.20;0.60;;;20.70;63.50;;;;;;4982044;28;20133;-35
2022/08/05 06:18:49;;;;;;;1.85;0.90;;;20.90;63.20;;;;;;4980165;28;20541;-31
2022/08/05 06:21:16;;;;;;;1.55;0.60;;;20.90;63.70;;;;;;4979816;28;20050;-32
2022/08/05 06:23:41;;;;;;;2.13;0.65;;;21.00;62.90;;;;;;4981718;28;20038;-29
2022/08/05 06:26:07;;;;;;;1.30;0.60;;;21.00;62.90;;;;;;4981331;28;20050;-33
2022/08/05 06:28:32;;;;;;;1.10;0.68;;;21.10;62.60;;;;;;4982430;28;20046;-32
2022/08/05 06:30:58;;;;;;;2.75;0.88;;;21.10;62.60;;;;;;4980006;28;20109;-33
2022/08/05 06:33:23;;;;;;;1.52;0.50;;;21.20;62.40;;;;;;4979728;28;20063;-32
2022/08/05 06:35:49;;;;;;;0.77;0.60;;;21.20;62.40;;;;;;4979636;28;20122;-38
2022/08/05 06:38:14;;;;;;;0.80;0.50;;;21.20;62.30;;;;;;4978840;28;20069;-35
2022/08/05 06:40:43;;;;;;;1.02;0.47;;;21.30;62.30;;;;;;4978692;28;20042;-35
2022/08/05 06:43:08;;;;;;;1.92;0.43;;;21.30;62.40;;;;;;4976816;28;20535;-32
2022/08/05 06:45:34;;;;;;;1.45;0.40;;;21.40;62.30;;;;;;4978518;28;20050;-36
2022/08/05 06:48:00;;;;;;;0.70;0.30;;;21.40;62.10;;;;;;4979724;28;20054;-35
2022/08/05 06:50:25;;;;;;;1.58;0.70;;;21.40;62.10;;;;;;4976530;28;20046;-32
2022/08/05 06:52:51;;;;;;;1.00;0.45;;;21.40;62.00;;;;;;4985216;28;20443;-35
2022/08/05 06:55:17;;;;;;;1.13;0.55;;;21.50;62.90;;;;;;4980047;28;20058;-34
2022/08/05 06:57:43;;;;;;;1.08;0.60;;;21.50;62.10;;;;;;4977270;28;20124;-36
2022/08/05 07:00:09;;;;;;;1.45;0.50;;;21.50;62.10;;;;;;4980681;28;20046;-31
2022/08/05 07:02:41;;;;;;;0.93;0.50;;;21.50;62.10;;;;;;4982723;28;20050;-32
2022/08/05 07:05:07;;;;;;;2.33;0.50;;;21.50;62.00;;;;;;4984344;28;20050;-33
2022/08/05 07:07:33;;;;;;;0.77;0.30;;;21.60;62.00;;;;;;4978401;28;20594;-34
2022/08/05 07:09:59;;;;;;;0.65;0.40;;;21.60;62.00;;;;;;4984145;28;20093;-34
2022/08/05 07:17:54;;;;;;;;;;;21.60;61.90;;;;;;4983419;28;20171;-35
2022/08/05 07:20:20;;;;;;;2.35;0.70;;;21.60;61.80;;;;;;4983804;28;20012;-36
2022/08/05 07:22:45;;;;;;;1.05;0.50;;;21.70;61.80;;;;;;4984945;28;20039;-33
2022/08/05 07:25:11;;;;;;;0.98;0.40;;;21.70;61.70;;;;;;4985877;28;20511;-35
2022/08/05 07:27:36;;;;;;;0.50;0.20;;;21.70;61.50;;;;;;4983868;28;20098;-35
2022/08/05 07:30:02;;;;;;;0.20;0.20;;;21.80;61.50;;;;;;4980409;28;20054;-35
2022/08/05 07:32:28;;;;;;;1.08;0.40;;;21.80;61.20;;;;;;4981292;28;20058;-30
2022/08/05 07:34:53;;;;;;;0.73;0.40;;;21.90;61.30;;;;;;4981777;28;20054;-39
2022/08/05 07:37:19;;;;;;;0.60;0.30;;;21.80;61.20;;;;;;4985645;28;20519;-35
2022/08/05 07:39:44;;;;;;;1.70;0.55;;;21.90;61.10;;;;;;4985070;28;20060;-34
2022/08/05 07:42:10;;;;;;;0.88;0.28;;;21.90;61.10;;;;;;4986465;28;20038;-34
2022/08/05 07:44:36;;;;;;;0.50;0.20;;;21.90;61.00;;;;;;4985542;28;20043;-32
2022/08/05 07:47:01;;;;;;;0.93;0.57;;;21.90;61.00;;;;;;4984816;28;20185;-33
2022/08/05 07:49:27;;;;;;;0.47;0.45;;;21.90;60.90;;;;;;4986987;28;20050;-35
2022/08/05 07:51:52;;;;;;;0.60;0.32;;;21.90;61.00;;;;;;4989711;28;20519;-38
2022/08/05 07:54:19;;;;;;;0.60;0.45;;;21.90;60.90;;;;;;4989061;28;20069;-35
2022/08/05 07:56:45;;;;;;;0.95;0.38;;;22.00;60.90;;;;;;4989279;28;20054;-38
2022/08/05 07:59:10;;;;;;;0.93;0.40;;;22.00;60.80;;;;;;4990136;28;20049;-37
2022/08/05 08:01:36;;;;;;;1.20;0.30;;;22.00;60.80;;;;;;4990054;28;20058;-38
2022/08/05 08:04:02;;;;;;;1.10;0.50;;;22.00;60.80;;;;;;4989192;28;20034;-38
2022/08/05 08:06:29;;;;;;;1.05;0.47;;;22.00;60.70;;;;;;4989615;28;20093;-35
2022/08/05 08:08:55;;;;;;;0.75;0.45;;;22.00;60.80;;;;;;4990444;28;20622;-33
2022/08/05 08:11:20;;;;;;;0.73;0.30;;;22.10;60.80;;;;;;4987828;28;20027;-40
2022/08/05 08:13:46;;;;;;;1.42;0.40;;;22.10;60.80;;;;;;4983418;28;20118;-42
2022/08/05 08:16:11;;;;;;;1.75;0.45;;;22.20;60.80;;;;;;4983673;28;20041;-42
2022/08/05 08:18:38;;;;;;;0.80;0.50;;;22.10;60.60;;;;;;4984092;28;20057;-41
2022/08/05 08:21:04;;;;;;;0.70;0.30;;;22.10;61.00;;;;;;4985377;28;20046;-42
2022/08/05 08:23:30;;;;;;;1.85;0.68;;;22.10;60.90;;;;;;4981277;28;20038;-42
2022/08/05 08:25:55;;;;;;;1.10;0.43;;;22.10;60.90;;;;;;4982738;28;20066;-41
2022/08/05 08:28:21;;;;;;;0.93;0.40;;;22.20;60.90;;;;;;4986283;28;20463;-42
2022/08/05 08:30:46;;;;;;;1.60;0.55;;;22.10;60.80;;;;;;4983447;28;20054;-41
2022/08/05 08:33:12;;;;;;;0.20;0.20;;;22.20;60.80;;;;;;4984765;28;20407;-42
2022/08/05 08:35:38;;;;;;;0.75;0.30;;;22.20;60.60;;;;;;4982126;28;20050;-42
2022/08/05 08:38:03;;;;;;;0.63;0.55;;;22.20;60.30;;;;;;4985006;28;20038;-42
2022/08/05 08:40:32;;;;;;;0.57;0.40;;;22.30;60.10;;;;;;4986490;28;20056;-42
2022/08/05 08:42:57;;;;;;;0.45;0.30;;;22.20;60.00;;;;;;4985683;28;20042;-42
2022/08/05 08:45:23;;;;;;;1.05;0.40;;;22.20;60.50;;;;;;5000136;28;20141;-42
2022/08/05 08:47:50;;;;;;;0.60;0.38;;;22.30;60.10;;;;;;4983898;28;20034;-42
2022/08/05 08:50:15;;;;;;;0.45;0.30;;;22.30;60.10;;;;;;4999414;28;20046;-39
2022/08/05 08:52:41;;;;;;;0.77;0.40;;;22.30;59.90;;;;;;4985637;28;20047;-43
2022/08/05 08:55:07;;;;;;;0.52;0.40;;;22.30;59.70;;;;;;5017575;28;20522;-42
2022/08/05 08:57:33;;;;;;;0.50;0.40;;;22.30;59.80;;;;;;4985686;28;20054;-44
2022/08/05 09:00:00;;;;;;;0.80;0.40;;;22.40;59.70;;;;;;4984486;28;20366;-41
2022/08/05 09:02:26;;;;;;;1.38;0.65;;;22.40;60.30;;;;;;4980921;28;20527;-42
2022/08/05 09:04:51;;;;;;;0.52;0.40;;;22.40;59.60;;;;;;4983425;28;20042;-42
2022/08/05 09:07:18;;;;;;;2.58;0.38;;;22.40;59.60;;;;;;4985596;28;20042;-40
2022/08/05 09:09:43;;;;;;;0.52;0.40;;;22.40;59.50;;;;;;4984302;28;20043;-41
2022/08/05 09:12:09;;;;;;;0.95;0.43;;;22.40;59.60;;;;;;4982926;28;20038;-42
2022/08/05 09:14:35;;;;;;;1.85;0.30;;;22.40;59.40;;;;;;4981287;28;20389;-42
2022/08/05 09:17:02;;;;;;;1.20;0.40;;;22.40;59.40;;;;;;4981829;28;20423;-42
2022/08/05 09:19:27;;;;;;;1.85;0.50;;;22.50;59.40;;;;;;4983792;28;20069;-42
2022/08/05 09:21:53;;;;;;;1.33;0.30;;;22.50;59.30;;;;;;4633115;28;10000445;-42
2022/08/05 09:24:19;;;;;;;1.52;0.30;;;22.50;59.90;;;;;;4980802;28;20050;-41
2022/08/05 09:26:50;;;;;;;1.08;0.30;;;22.50;59.00;;;;;;4979684;28;20097;-46
2022/08/05 09:29:15;;;;;;;0.85;0.50;;;22.50;59.00;;;;;;4977420;28;20579;-42
2022/08/05 09:31:42;;;;;;;0.82;0.45;;;22.50;59.00;;;;;;4999996;28;20514;-41
2022/08/05 09:34:08;;;;;;;2.08;0.40;;;22.50;58.80;;;;;;4982800;28;20082;-41
2022/08/05 09:36:50;;;;;;;1.10;0.32;;;22.50;59.10;;;;;;4982812;28;20081;-42
2022/08/05 09:39:16;;;;;;;1.08;0.55;;;22.50;59.00;;;;;;4995162;28;20504;-42
2022/08/05 09:42:02;;;;;;;0.30;0.20;;;22.50;59.20;;;;;;4983866;28;20053;-42
2022/08/05 09:44:41;;;;;;;0.40;0.10;;;22.60;59.20;;;;;;4982962;28;20018;-42
2022/08/05 09:47:17;;;;;;;1.00;0.30;;;22.60;59.30;;;;;;5013043;28;20072;-42
2022/08/05 09:49:53;;;;;;;0.50;0.20;;;22.60;59.50;;;;;;4983750;28;20125;-42
2022/08/05 09:52:29;;;;;;;0.38;0.20;;;22.60;60.20;;;;;;5019398;28;20495;-39
2022/08/05 09:54:54;;;;;;;1.38;0.45;;;22.60;59.70;;;;;;4982443;28;21735;-42
2022/08/05 09:57:39;;;;;;;2.10;0.40;;;22.60;59.70;;;;;;4633575;28;9999823;-40
2022/08/05 10:00:11;;;;;;;0.90;0.25;;;22.60;60.00;;;;;;4980160;28;20537;-42
2022/08/05 10:02:41;;;;;;;0.80;0.20;;;22.60;60.10;;;;;;4978896;28;20431;-42
2022/08/05 10:05:12;;;;;;;0.68;0.50;;;22.70;60.50;;;;;;4980381;28;20058;-41
2022/08/05 10:07:53;;;;;;;4.07;0.50;;;22.70;61.10;;;;;;4984025;28;20134;-42
2022/08/05 10:10:20;;;;;;;1.27;0.47;;;22.70;61.10;;;;;;4981462;28;20069;-42
2022/08/05 10:12:54;;;;;;;1.83;0.20;;;22.70;61.10;;;;;;4981452;28;20583;-42
2022/08/05 10:15:30;;;;;;;0.40;0.30;;;22.70;61.20;;;;;;4980410;28;20466;-32
2022/08/05 10:18:21;;;;;;;0.65;0.25;;;22.70;61.20;;;;;;4979886;28;20053;-42
2022/08/05 10:20:51;;;;;;;0.60;0.30;;;22.70;61.40;;;;;;4977074;28;20411;-42
2022/08/05 10:23:20;;;;;;;0.68;0.43;;;22.70;61.50;;;;;;4981842;28;20042;-42
2022/08/05 10:25:46;;;;;;;1.83;0.30;;;22.80;61.40;;;;;;4981509;28;20038;-41
2022/08/05 10:28:11;;;;;;;1.77;0.30;;;22.80;61.40;;;;;;4983860;28;20510;-42
2022/08/05 10:30:37;;;;;;;1.20;0.40;;;22.80;61.20;;;;;;4980140;28;20078;-45
2022/08/05 10:33:03;;;;;;;1.00;0.47;;;22.80;61.20;;;;;;5010171;28;20042;-41
2022/08/05 10:35:32;;;;;;;0.52;0.45;;;22.80;61.10;;;;;;4979718;28;20046;-42
2022/08/05 10:37:59;;;;;;;2.05;0.50;;;22.80;61.20;;;;;;4981340;28;20112;-43
2022/08/05 10:40:48;;;;;;;0.30;0.20;;;22.80;61.10;;;;;;4982091;28;20042;-42
2022/08/05 10:43:44;;;;;;;0.20;0.20;;;22.80;61.10;;;;;;4967342;28;20057;-42
2022/08/05 10:46:12;;;;;;;0.30;0.17;;;22.80;60.90;;;;;;4979029;28;20050;-42
2022/08/05 10:48:37;;;;;;;0.73;0.50;;;22.80;61.70;;;;;;4979472;28;20054;-42
2022/08/05 10:51:11;;;;;;;1.58;0.30;;;22.90;60.90;;;;;;4980318;28;20057;-42
2022/08/05 10:53:42;;;;;;;0.63;0.30;;;22.90;61.00;;;;;;4982811;28;20502;-42
2022/08/05 10:56:25;;;;;;;0.22;0.17;;;22.90;61.00;;;;;;4979205;28;20054;-42
2022/08/05 10:58:53;;;;;;;0.30;0.30;;;22.80;60.90;;;;;;4973675;28;20078;-41
2022/08/05 11:01:34;;;;;;;0.30;0.20;;;22.90;61.00;;;;;;4980723;28;20084;-42
2022/08/05 11:04:03;;;;;;;1.08;0.30;;;22.90;61.10;;;;;;4981626;28;20053;-41
2022/08/05 11:06:29;;;;;;;1.45;0.30;;;22.90;61.10;;;;;;4974174;28;20042;-41
2022/08/05 11:09:17;;;;;;;0.40;0.20;;;22.90;61.00;;;;;;5008325;28;20046;-36
2022/08/05 11:11:48;;;;;;;0.50;0.15;;;22.90;61.20;;;;;;4980792;28;20403;-33
2022/08/05 11:14:23;;;;;;;1.05;0.17;;;22.90;61.30;;;;;;4978453;28;20042;-36
2022/08/05 11:17:25;;;;;;;0.22;0.22;;;22.90;61.40;;;;;;5011775;28;20065;-42
2022/08/05 11:19:52;;;;;;;0.30;0.17;;;23.00;61.60;;;;;;4977780;28;20061;-42
2022/08/05 11:22:42;;;;;;;0.40;0.20;;;23.00;61.90;;;;;;4983366;28;20499;-42
2022/08/05 11:25:29;;;;;;;0.30;0.15;;;22.90;61.80;;;;;;4981942;28;20125;-42
2022/08/05 11:28:15;;;;;;;0.60;0.20;;;23.00;62.00;;;;;;4984183;28;20350;-45
2022/08/05 11:31:02;;;;;;;0.90;0.20;;;23.00;62.20;;;;;;4982454;28;20049;-42
2022/08/05 11:33:31;;;;;;;1.63;0.30;;;23.00;62.30;;;;;;4984617;28;20038;-42
2022/08/05 11:35:57;;;;;;;0.30;0.10;;;23.00;62.40;;;;;;4981817;28;20053;-41
2022/08/05 11:38:37;;;;;;;0.20;0.20;;;23.00;62.50;;;;;;4983901;28;20042;-42
2022/08/05 11:41:03;;;;;;;0.22;0.15;;;23.00;62.40;;;;;;4981478;28;20043;-41
2022/08/05 11:43:29;;;;;;;0.63;0.30;;;23.00;62.50;;;;;;4982895;28;20438;-42
2022/08/05 11:45:55;;;;;;;1.10;0.10;;;23.10;62.50;;;;;;4984496;28;20038;-42
2022/08/05 11:48:21;;;;;;;0.20;0.20;;;23.00;62.50;;;;;;4982060;28;20502;-41
2022/08/05 11:50:48;;;;;;;0.43;0.40;;;23.00;62.70;;;;;;4994685;28;20406;-42
2022/08/05 11:53:13;;;;;;;0.75;0.20;;;23.10;62.70;;;;;;4982632;28;20100;-42
2022/08/05 11:55:55;;;;;;;0.45;0.45;;;23.10;62.70;;;;;;4983196;28;20050;-42
2022/08/05 11:58:40;;;;;;;0.32;0.10;;;23.10;62.80;;;;;;4984772;28;20054;-42
2022/08/05 12:01:12;;;;;;;0.60;0.32;;;23.10;62.60;;;;;;4979186;28;20050;-43
2022/08/05 12:03:53;;;;;;;0.82;0.30;;;23.10;62.70;;;;;;4978376;28;20141;-42
2022/08/05 12:06:23;;;;;;;1.10;0.30;;;23.20;62.80;;;;;;4977128;28;20108;-42
2022/08/05 12:08:54;;;;;;;1.15;0.30;;;23.10;62.90;;;;;;4978270;28;20666;-43
2022/08/05 12:11:28;;;;;;;0.30;0.30;;;23.10;62.70;;;;;;4658412;28;9999849;-42
2022/08/05 12:14:01;;;;;;;0.55;0.20;;;23.20;62.80;;;;;;4982487;28;20055;-42
2022/08/05 12:16:30;;;;;;;0.10;0.10;;;23.20;63.00;;;;;;4978214;28;20053;-39
2022/08/05 12:18:56;;;;;;;0.20;0.15;;;23.20;62.80;;;;;;4983863;28;20112;-42
2022/08/05 12:21:28;;;;;;;1.33;0.20;;;23.20;63.00;;;;;;4983632;28;20511;-43
2022/08/05 12:23:57;;;;;;;0.10;0.10;;;23.20;62.90;;;;;;4980457;28;20105;-42
2022/08/05 12:26:22;;;;;;;0.70;0.20;;;23.20;62.80;;;;;;4980437;28;20300;-42
2022/08/05 12:28:48;;;;;;;0.08;0.08;;;23.20;62.80;;;;;;4986168;28;20046;-45
2022/08/05 12:31:15;;;;;;;0.50;0.30;;;23.20;62.80;;;;;;4982168;28;20117;-45
2022/08/05 12:33:41;;;;;;;0.52;0.10;;;23.20;63.30;;;;;;4981413;28;20120;-42
2022/08/05 12:36:07;;;;;;;0.52;0.17;;;23.30;62.80;;;;;;4978966;28;20050;-42
2022/08/05 12:38:33;;;;;;;0.38;0.10;;;23.20;62.80;;;;;;5014285;28;20052;-40
2022/08/05 12:40:58;;;;;;;0.25;0.20;;;23.20;62.80;;;;;;4981859;28;20463;-42
2022/08/05 12:43:24;;;;;;;0.10;0.10;;;23.20;62.80;;;;;;4985191;28;20062;-42
2022/08/05 12:45:53;;;;;;;0.63;0.30;;;23.20;62.80;;;;;;4981810;28;20205;-42
2022/08/05 12:48:19;;;;;;;0.98;0.22;;;23.30;62.90;;;;;;4979184;28;20111;-42
2022/08/05 12:51:16;;;;;;;0.17;0.17;;;23.20;62.80;;;;;;4982259;28;20038;-42
2022/08/05 12:53:42;;;;;;;0.30;0.20;;;23.20;62.80;;;;;;4980973;28;20129;-42
2022/08/05 12:56:24;;;;;;;1.15;0.47;;;23.20;62.80;;;;;;4981200;28;20496;-45
2022/08/05 12:59:14;;;;;;;0.80;0.10;;;23.20;62.80;;;;;;4981826;28;20138;-42